createdAt,value
2023-04-18T00:00:02.946Z,0
2023-04-18T00:05:03.151Z,0
2023-04-18T00:10:03.032Z,0
2023-04-18T00:15:02.972Z,0
2023-04-18T00:20:02.957Z,0
2023-04-18T00:25:02.864Z,0
2023-04-18T00:30:02.986Z,0
2023-04-18T00:35:02.914Z,0
2023-04-18T00:40:02.899Z,0
2023-04-18T00:45:02.922Z,0
2023-04-18T00:50:02.946Z,0
2023-04-18T00:55:02.863Z,0
2023-04-18T01:00:02.912Z,0
2023-04-18T01:05:02.937Z,0
2023-04-18T01:10:02.919Z,0
2023-04-18T01:15:02.921Z,0
2023-04-18T01:20:02.903Z,0
2023-04-18T01:25:02.902Z,0
2023-04-18T01:30:02.878Z,0
2023-04-18T01:35:03.092Z,0
2023-04-18T01:40:02.943Z,0
2023-04-18T01:45:02.896Z,0
2023-04-18T01:50:02.905Z,0
2023-04-18T01:55:02.932Z,0
2023-04-18T02:00:02.914Z,0
2023-04-18T02:05:03.164Z,0
2023-04-18T02:10:03.139Z,0
2023-04-18T02:15:03.111Z,0
2023-04-18T02:20:03.118Z,0
2023-04-18T02:25:03.122Z,0
2023-04-18T02:30:03.060Z,0
2023-04-18T02:35:03.051Z,0
2023-04-18T02:40:03.016Z,0
2023-04-18T02:45:03.019Z,0
2023-04-18T02:50:03.061Z,0
2023-04-18T02:55:03.025Z,0
2023-04-18T03:00:02.976Z,0
2023-04-18T03:05:03.110Z,0
2023-04-18T03:10:03.063Z,0
2023-04-18T03:15:03.072Z,0
2023-04-18T03:20:03.016Z,0
2023-04-18T03:25:03.030Z,0
2023-04-18T03:30:02.960Z,0
2023-04-18T03:35:03.073Z,0
2023-04-18T03:40:03.088Z,0
2023-04-18T03:45:03.013Z,0
2023-04-18T03:50:03.108Z,0
2023-04-18T03:55:03.021Z,0
2023-04-18T04:00:03.082Z,0
2023-04-18T04:05:03.098Z,0
2023-04-18T04:10:03.007Z,0
2023-04-18T04:15:03.195Z,0.24262433862433866
2023-04-18T04:20:03.196Z,0.41041269841269845
2023-04-18T04:25:03.241Z,0.4206984126984127
2023-04-18T04:30:03.237Z,0.6115767195767197
2023-04-18T04:35:01.432Z,0.6954074074074075
2023-04-18T04:40:01.443Z,1.0558412698412698
2023-04-18T04:45:01.427Z,1.2925502645502647
2023-04-18T04:50:01.378Z,1.527809523809524
2023-04-18T04:55:01.382Z,1.7445291005291006
2023-04-18T05:00:01.461Z,1.9635238095238094
2023-04-18T05:05:01.469Z,2.2264444444444442
2023-04-18T05:10:01.413Z,2.4433968253968255
2023-04-18T05:15:01.364Z,2.667280423280423
2023-04-18T05:20:01.446Z,2.807015873015873
2023-04-18T05:25:01.646Z,2.9684973544973547
2023-04-18T05:30:01.596Z,3.191195767195767
2023-04-18T05:35:01.551Z,3.6889100529100536
2023-04-18T05:40:01.570Z,4.109227513227514
2023-04-18T05:45:01.528Z,4.7225291005291
2023-04-18T05:50:01.576Z,5.540645502645503
2023-04-18T05:55:01.400Z,6.521185185185185
2023-04-18T06:00:01.797Z,7.6595978835978835
2023-04-18T06:05:01.664Z,8.952232804232803
2023-04-18T06:10:01.422Z,10.43789417989418
2023-04-18T06:15:01.448Z,11.988613756613756
2023-04-18T06:20:01.463Z,13.702253968253968
2023-04-18T06:25:01.487Z,15.461746031746031
2023-04-18T06:30:01.583Z,17.427862433862433
2023-04-18T06:35:01.499Z,19.72459259259259
2023-04-18T06:40:01.519Z,21.73371428571429
2023-04-18T06:45:01.482Z,23.839428571428574
2023-04-18T06:50:01.512Z,25.66906878306878
2023-04-18T06:55:01.492Z,27.247968253968253
2023-04-18T07:00:01.512Z,29.128486772486777
2023-04-18T07:05:01.605Z,31.339957671957674
2023-04-18T07:10:01.499Z,33.596010582010585
2023-04-18T07:15:01.496Z,35.65455026455027
2023-04-18T07:20:01.772Z,37.57174603174603
2023-04-18T07:25:01.538Z,39.41306878306878
2023-04-18T07:30:01.493Z,40.9647619047619
2023-04-18T07:35:01.514Z,42.899830687830686
2023-04-18T07:40:02.406Z,44.8244761904762
2023-04-18T07:45:01.715Z,46.51168253968254
2023-04-18T07:50:01.725Z,48.40601058201058
2023-04-18T07:55:01.702Z,49.99096296296296
2023-04-18T08:00:01.678Z,51.59519576719577
2023-04-18T08:05:01.815Z,53.30305820105821
2023-04-18T08:10:01.668Z,54.75040211640212
2023-04-18T08:15:01.697Z,56.23431746031746
2023-04-18T08:20:01.640Z,57.716772486772484
2023-04-18T08:25:05.219Z,59.183417989418
2023-04-18T08:30:01.678Z,60.81931216931217
2023-04-18T08:35:01.677Z,62.0373015873016
2023-04-18T08:40:01.631Z,62.62634920634921
2023-04-18T08:45:01.622Z,64.48139682539683
2023-04-18T08:50:01.633Z,65.51008465608467
2023-04-18T08:55:01.634Z,66.2699470899471
2023-04-18T09:00:01.644Z,67.71071957671958
2023-04-18T09:05:01.635Z,68.95675132275133
2023-04-18T09:10:01.630Z,69.2948253968254
2023-04-18T09:15:01.572Z,69.99483597883598
2023-04-18T09:20:01.702Z,71.3375873015873
2023-04-18T09:25:01.662Z,73.4254814814815
2023-04-18T09:30:01.752Z,74.01892063492063
2023-04-18T09:35:03.516Z,75.08124867724868
2023-04-18T09:40:01.645Z,76.11578835978835
2023-04-18T09:45:01.657Z,77.03653968253968
2023-04-18T09:50:01.696Z,76.84641269841269
2023-04-18T09:55:01.648Z,74.95060317460317
2023-04-18T10:00:01.597Z,76.96168253968254
2023-04-18T10:05:01.778Z,80.20009523809524
2023-04-18T10:10:01.723Z,78.96243386243385
2023-04-18T10:15:02.691Z,80.70948148148148
2023-04-18T10:20:01.631Z,78.28263492063492
2023-04-18T10:25:01.776Z,82.4663597883598
2023-04-18T10:30:01.621Z,83.0295343915344
2023-04-18T10:35:01.683Z,83.24291005291006
2023-04-18T10:40:01.663Z,84.0669417989418
2023-04-18T10:45:01.726Z,83.82263492063493
2023-04-18T10:50:01.702Z,83.47
2023-04-18T10:55:01.705Z,83.56856084656084
2023-04-18T11:00:01.676Z,83.5264656084656
2023-04-18T11:05:01.801Z,83.91451851851852
2023-04-18T11:10:01.821Z,84.25528042328042
2023-04-18T11:15:01.686Z,84.99768253968254
2023-04-18T11:20:01.705Z,85.57848677248677
2023-04-18T11:25:01.733Z,85.16773544973546
2023-04-18T11:30:01.653Z,85.19876190476191
2023-04-18T11:35:01.733Z,84.94
2023-04-18T11:40:01.712Z,85.02021164021164
2023-04-18T11:45:01.844Z,84.58590476190476
2023-04-18T11:50:01.756Z,83.77101587301587
2023-04-18T11:55:01.740Z,84.59908994708995
2023-04-18T12:00:01.759Z,83.68678306878307
2023-04-18T12:05:02.064Z,83.60857142857144
2023-04-18T12:10:01.738Z,83.59067724867725
2023-04-18T12:15:01.826Z,83.56476190476191
2023-04-18T12:20:01.802Z,83.28627513227514
2023-04-18T12:25:01.837Z,82.63165079365079
2023-04-18T12:30:01.788Z,82.17650793650793
2023-04-18T12:35:01.902Z,81.16592592592593
2023-04-18T12:40:01.762Z,81.07970370370371
2023-04-18T12:45:01.771Z,81.45785185185184
2023-04-18T12:50:01.778Z,81.17855026455027
2023-04-18T12:55:01.841Z,80.27704761904762
2023-04-18T13:00:01.834Z,79.86139682539682
2023-04-18T13:05:01.870Z,79.51514285714286
2023-04-18T13:10:01.877Z,78.56685714285715
2023-04-18T13:15:01.853Z,78.16871957671958
2023-04-18T13:20:01.933Z,77.49035978835978
2023-04-18T13:25:01.896Z,75.69061375661376
2023-04-18T13:30:01.915Z,75.62571428571428
2023-04-18T13:35:01.950Z,74.884708994709
2023-04-18T13:40:01.984Z,73.36287830687832
2023-04-18T13:45:02.073Z,71.72591534391535
2023-04-18T13:50:02.089Z,70.45649735449736
2023-04-18T13:55:02.047Z,67.95238095238095
2023-04-18T14:00:01.974Z,66.07691005291005
2023-04-18T14:05:02.231Z,66.5831216931217
2023-04-18T14:10:02.160Z,66.10207407407407
2023-04-18T14:15:02.013Z,63.54412698412698
2023-04-18T14:20:02.007Z,63.594878306878314
2023-04-18T14:25:01.988Z,62.28157671957673
2023-04-18T14:30:02.018Z,61.52285714285715
2023-04-18T14:35:02.025Z,62.129100529100526
2023-04-18T14:40:02.077Z,61.52279365079365
2023-04-18T14:45:02.126Z,58.23562962962963
2023-04-18T14:50:02.090Z,56.21188359788359
2023-04-18T14:55:02.063Z,54.47538624338625
2023-04-18T15:00:02.053Z,50.004507936507935
2023-04-18T15:05:02.253Z,51.111121693121696
2023-04-18T15:10:02.142Z,49.565470899470895
2023-04-18T15:15:01.888Z,48.73968253968254
2023-04-18T15:20:01.949Z,49.06125925925925
2023-04-18T15:25:02.062Z,44.95922751322751
2023-04-18T15:30:02.183Z,28.13259259259259
2023-04-18T15:35:02.094Z,36.57447619047619
2023-04-18T15:40:01.973Z,13.528084656084657
2023-04-18T15:45:02.145Z,11.441301587301588
2023-04-18T15:50:02.132Z,15.160444444444446
2023-04-18T15:55:02.090Z,23.052878306878306
2023-04-18T16:00:02.085Z,26.454846560846562
2023-04-18T16:05:02.205Z,23.52925925925926
2023-04-18T16:10:02.373Z,26.112370370370368
2023-04-18T16:15:02.186Z,26.579238095238093
2023-04-18T16:20:02.164Z,25.552243386243383
2023-04-18T16:25:02.526Z,23.26646560846561
2023-04-18T16:30:02.213Z,21.164158730158732
2023-04-18T16:35:02.111Z,18.198603174603175
2023-04-18T16:40:02.398Z,14.379925925925926
2023-04-18T16:45:02.058Z,12.619068783068782
2023-04-18T16:50:02.112Z,10.815671957671958
2023-04-18T16:55:02.162Z,10.951597883597882
2023-04-18T17:00:02.101Z,9.544328042328042
2023-04-18T17:05:02.087Z,8.145566137566137
2023-04-18T17:10:01.986Z,6.490772486772488
2023-04-18T17:15:02.063Z,4.396761904761905
2023-04-18T17:20:02.015Z,4.432137566137566
2023-04-18T17:25:02.002Z,3.685227513227513
2023-04-18T17:30:02.056Z,3.026
2023-04-18T17:35:02.029Z,2.344994708994709
2023-04-18T17:40:02.071Z,2.070190476190476
2023-04-18T17:45:02.070Z,1.4145396825396828
2023-04-18T17:50:02.022Z,0.8461375661375663
2023-04-18T17:55:02.044Z,0.45022222222222225
2023-04-18T18:00:02.067Z,0.23720634920634923
2023-04-18T18:05:02.041Z,0.3284867724867725
2023-04-18T18:10:02.129Z,0.16220105820105823
2023-04-18T18:15:02.121Z,0
2023-04-18T18:20:02.251Z,0
2023-04-18T18:25:02.235Z,0
2023-04-18T18:30:02.346Z,0
2023-04-18T18:35:02.215Z,0
2023-04-18T18:40:02.110Z,0
2023-04-18T18:45:02.129Z,0
2023-04-18T18:50:02.093Z,0
2023-04-18T18:55:02.073Z,0
2023-04-18T19:00:02.124Z,0
2023-04-18T19:05:02.281Z,0
2023-04-18T19:10:02.180Z,0
2023-04-18T19:15:02.146Z,0
2023-04-18T19:20:02.173Z,0
2023-04-18T19:25:02.130Z,0
2023-04-18T19:30:02.234Z,0
2023-04-18T19:35:02.101Z,0
2023-04-18T19:40:02.248Z,0
2023-04-18T19:45:02.279Z,0
2023-04-18T19:50:02.360Z,0
2023-04-18T19:55:02.335Z,0
2023-04-18T20:00:02.211Z,0
2023-04-18T20:05:02.338Z,0
2023-04-18T20:10:02.199Z,0
2023-04-18T20:15:02.243Z,0
2023-04-18T20:20:02.201Z,0
2023-04-18T20:25:02.306Z,0
2023-04-18T20:30:02.197Z,0
2023-04-18T20:35:02.254Z,0
2023-04-18T20:40:02.260Z,0
2023-04-18T20:45:02.255Z,0
2023-04-18T20:50:02.457Z,0
2023-04-18T20:55:02.190Z,0
2023-04-18T21:00:02.274Z,0
2023-04-18T21:05:02.374Z,0
2023-04-18T21:10:02.369Z,0
2023-04-18T21:15:02.387Z,0
2023-04-18T21:20:02.306Z,0
2023-04-18T21:25:02.351Z,0
2023-04-18T21:30:04.149Z,0
2023-04-18T21:35:02.298Z,0
2023-04-18T21:40:02.278Z,0
2023-04-18T21:45:02.255Z,0
2023-04-18T21:50:02.203Z,0
2023-04-18T21:55:02.232Z,0
2023-04-18T22:00:02.326Z,0
2023-04-18T22:05:02.337Z,0
2023-04-18T22:10:02.394Z,0
2023-04-18T22:15:02.316Z,0
2023-04-18T22:20:02.334Z,0
2023-04-18T22:25:02.318Z,0
2023-04-18T22:30:02.282Z,0
2023-04-18T22:35:02.484Z,0
2023-04-18T22:40:02.427Z,0
2023-04-18T22:45:02.501Z,0
2023-04-18T22:50:02.375Z,0
2023-04-18T22:55:02.445Z,0
2023-04-18T23:00:02.280Z,0
2023-04-18T23:05:02.434Z,0
2023-04-18T23:10:02.299Z,0
2023-04-18T23:15:02.355Z,0
2023-04-18T23:20:02.341Z,0
2023-04-18T23:25:02.344Z,0
2023-04-18T23:30:02.292Z,0
2023-04-18T23:35:02.342Z,0
2023-04-18T23:40:02.374Z,0
2023-04-18T23:45:02.355Z,0
2023-04-18T23:50:02.393Z,0
2023-04-18T23:55:02.397Z,0
